Time;durP1;ratioP1;P1;durP2;ratioP2;P2;SDS_P1;SDS_P2;PMS_P1;PMS_P2;Temp;Humidity;BMP_temperature;BMP_pressure;BME280_temperature;BME280_humidity;BME280_pressure;Samples;Min_cycle;Max_cycle;Signal;HPM_P1;HPM_P2
2023/08/22 00:01:54;;;;;;;4.32;3.63;;;;;;;18.34;96.08;102146.44;5058403;28;20032;-74
2023/08/22 00:04:19;;;;;;;5.25;3.78;;;;;;;18.33;96.01;102142.06;5057689;28;20041;-74
2023/08/22 00:06:44;;;;;;;4.45;3.53;;;;;;;18.32;95.90;102154.47;5057797;28;20029;-74
2023/08/22 00:09:11;;;;;;;6.03;4.22;;;;;;;18.31;96.01;102141.31;5057982;28;20332;-74
2023/08/22 00:11:37;;;;;;;4.32;4.03;;;;;;;18.30;96.09;102132.50;5039659;28;20120;-74
2023/08/22 00:14:02;;;;;;;5.45;4.15;;;;;;;18.29;96.09;102132.56;5057698;28;20082;-74
2023/08/22 00:16:27;;;;;;;6.43;4.25;;;;;;;18.28;96.03;102130.84;5057027;28;20044;-74
2023/08/22 00:18:53;;;;;;;5.28;4.28;;;;;;;18.26;96.35;102122.13;5058039;28;20089;-74
2023/08/22 00:21:18;;;;;;;5.93;4.40;;;;;;;18.25;96.30;102117.78;5062034;28;20101;-74
2023/08/22 00:23:44;;;;;;;5.28;4.20;;;;;;;18.23;96.30;102118.69;5077400;28;20335;-74
2023/08/22 00:26:09;;;;;;;4.65;4.25;;;;;;;18.23;96.29;102109.88;5077175;28;20270;-74
2023/08/22 00:28:34;;;;;;;5.53;4.43;;;;;;;18.22;96.62;102109.00;5027609;28;20033;-74
2023/08/22 00:31:00;;;;;;;5.03;4.40;;;;;;;18.21;96.63;102117.91;5050647;28;20033;-74
2023/08/22 00:33:25;;;;;;;5.13;4.63;;;;;;;18.20;96.61;102112.69;5048096;28;20045;-74
2023/08/22 00:35:50;;;;;;;4.72;4.28;;;;;;;18.19;96.67;102103.88;5033566;28;20055;-74
2023/08/22 00:38:16;;;;;;;4.90;4.05;;;;;;;18.19;96.52;102109.19;5065436;28;20200;-74
2023/08/22 00:40:41;;;;;;;4.20;3.80;;;;;;;18.18;96.66;102101.31;5081584;28;20040;-74
2023/08/22 00:43:07;;;;;;;4.38;4.00;;;;;;;18.18;96.50;102107.47;5068291;28;20107;-74
2023/08/22 00:45:32;;;;;;;6.28;4.00;;;;;;;18.16;96.37;102095.25;5060806;28;20036;-74
2023/08/22 00:47:58;;;;;;;7.65;4.70;;;;;;;18.15;96.49;102097.00;5061348;28;20078;-74
2023/08/22 00:50:24;;;;;;;5.85;4.25;;;;;;;18.13;96.82;102090.09;5060615;28;20074;-74
2023/08/22 00:52:50;;;;;;;6.90;4.22;;;;;;;18.11;96.62;102090.16;5061397;28;20249;-74
2023/08/22 00:55:15;;;;;;;6.25;4.28;;;;;;;18.11;96.66;102089.31;5073618;28;20047;-74
2023/08/22 00:57:41;;;;;;;7.93;4.00;;;;;;;18.09;96.93;102080.59;5080777;28;20358;-74
2023/08/22 01:00:10;;;;;;;4.68;4.03;;;;;;;18.08;96.84;102084.16;5081200;28;20028;-74
2023/08/22 01:03:17;;;;;;;5.57;4.40;;;;;;;18.04;96.72;102072.88;4987524;28;20550;-77
2023/08/22 01:05:50;;;;;;;5.17;3.90;;;;;;;18.02;96.97;102078.25;4954152;28;20039;-74
2023/08/22 01:08:20;;;;;;;4.53;3.67;;;;;;;18.01;97.10;102084.50;4953722;28;20769;-74
2023/08/22 01:10:52;;;;;;;4.50;3.95;;;;;;;17.98;97.16;102087.31;5016876;28;20068;-74
2023/08/22 01:13:22;;;;;;;4.07;3.75;;;;;;;17.98;97.12;102086.47;5059555;28;20099;-74
2023/08/22 01:15:49;;;;;;;4.25;3.83;;;;;;;17.96;97.03;102086.53;5060421;28;20043;-74
2023/08/22 01:18:18;;;;;;;9.98;3.97;;;;;;;17.94;97.26;102084.91;5060476;28;20200;-74
2023/08/22 01:20:43;;;;;;;4.72;4.03;;;;;;;17.93;97.29;102085.84;5060642;28;20044;-74
2023/08/22 01:23:09;;;;;;;5.70;3.75;;;;;;;17.93;97.26;102093.78;5059404;28;20079;-74
2023/08/22 01:25:36;;;;;;;3.70;3.33;;;;;;;17.91;97.22;102088.56;5060423;28;20060;-74
2023/08/22 01:28:05;;;;;;;3.47;3.17;;;;;;;17.90;97.08;102089.50;5060702;28;20020;-74
2023/08/22 01:30:55;;;;;;;3.80;3.28;;;;;;;17.89;96.86;102094.88;5060320;28;20029;-74
2023/08/22 01:33:42;;;;;;;4.40;3.22;;;;;;;17.86;96.76;102093.22;5059859;28;20041;-74
2023/08/22 01:36:10;;;;;;;3.17;2.90;;;;;;;17.84;96.95;102092.44;5060012;28;20036;-74
2023/08/22 01:38:36;;;;;;;5.57;2.67;;;;;;;17.82;96.90;102097.81;5053332;28;20498;-74
2023/08/22 01:41:02;;;;;;;4.07;2.88;;;;;;;17.81;96.89;102093.47;5041887;28;20036;-74
2023/08/22 01:43:28;;;;;;;2.90;2.67;;;;;;;17.80;96.90;102094.38;5051451;28;20039;-74
2023/08/22 01:45:53;;;;;;;5.60;2.70;;;;;;;17.78;96.60;102095.41;5041051;28;20049;-74
2023/08/22 01:48:18;;;;;;;3.92;3.00;;;;;;;17.76;96.81;102095.47;5041819;28;20049;-74
2023/08/22 01:50:44;;;;;;;3.33;2.63;;;;;;;17.73;96.62;102084.19;5068469;28;20205;-74
2023/08/22 01:53:09;;;;;;;3.28;2.50;;;;;;;17.72;96.89;102088.63;5079810;28;20260;-74
2023/08/22 01:55:35;;;;;;;2.80;2.50;;;;;;;17.70;96.94;102090.50;5046035;28;20029;-74
2023/08/22 01:58:00;;;;;;;4.47;2.78;;;;;;;17.70;96.87;102089.63;5059640;28;20100;-74
2023/08/22 02:00:26;;;;;;;2.70;2.50;;;;;;;17.66;96.91;102078.31;5058413;28;20060;-74
2023/08/22 02:02:51;;;;;;;3.03;2.70;;;;;;;17.65;96.92;102085.44;5058610;28;20033;-74
2023/08/22 02:05:16;;;;;;;3.13;2.70;;;;;;;17.63;96.99;102079.34;5057541;28;20086;-74
2023/08/22 02:07:42;;;;;;;3.42;3.00;;;;;;;17.61;96.94;102081.22;5073360;28;20024;-74
2023/08/22 02:10:07;;;;;;;3.78;2.45;;;;;;;17.61;96.89;102072.44;5078681;28;20028;-74
2023/08/22 02:12:33;;;;;;;2.53;2.33;;;;;;;17.59;97.14;102075.16;5078091;28;20231;-74
2023/08/22 02:14:58;;;;;;;4.97;2.60;;;;;;;17.58;96.96;102076.06;5078529;28;20062;-75
2023/08/22 02:17:24;;;;;;;5.07;2.40;;;;;;;17.56;96.94;102072.66;5077348;28;20032;-77
2023/08/22 02:19:49;;;;;;;3.53;2.58;;;;;;;17.54;97.08;102069.22;5076729;28;20362;-77
2023/08/22 02:22:14;;;;;;;2.20;2.00;;;;;;;17.54;96.91;102060.44;5076565;28;20347;-77
2023/08/22 02:24:40;;;;;;;2.47;2.28;;;;;;;17.54;97.08;102063.09;5076712;28;20048;-77
2023/08/22 02:27:05;;;;;;;3.00;2.70;;;;;;;17.52;96.95;102064.94;5076671;28;20029;-77
2023/08/22 02:29:31;;;;;;;2.67;2.47;;;;;;;17.51;97.14;102071.16;5078274;28;20028;-74
2023/08/22 02:31:57;;;;;;;2.78;2.55;;;;;;;17.50;96.91;102072.09;5082165;28;20219;-74
2023/08/22 02:34:24;;;;;;;2.33;2.08;;;;;;;17.48;97.09;102071.31;5066025;28;20045;-74
2023/08/22 02:36:49;;;;;;;2.33;2.17;;;;;;;17.47;97.04;102065.16;5041682;28;20048;-74
2023/08/22 02:39:14;;;;;;;6.40;2.90;;;;;;;17.44;97.17;102063.56;5042280;28;20033;-74
2023/08/22 02:41:40;;;;;;;4.70;2.30;;;;;;;17.42;97.24;102052.16;5041846;28;20037;-74
2023/08/22 02:44:06;;;;;;;3.80;2.67;;;;;;;17.42;97.28;102053.94;5068299;28;20048;-74
2023/08/22 02:46:31;;;;;;;3.25;2.47;;;;;;;17.41;97.19;102047.81;5081328;28;20059;-74
2023/08/22 02:48:56;;;;;;;4.03;2.50;;;;;;;17.38;97.52;102049.75;5061228;28;20107;-74
2023/08/22 02:51:22;;;;;;;2.63;2.42;;;;;;;17.39;97.46;102048.78;5059554;28;20064;-74
2023/08/22 02:53:47;;;;;;;2.92;2.33;;;;;;;17.36;97.53;102052.47;5044400;28;20037;-74
2023/08/22 02:56:13;;;;;;;3.13;2.92;;;;;;;17.35;97.48;102056.03;5061078;28;20033;-74
2023/08/22 02:58:38;;;;;;;7.00;2.97;;;;;;;17.34;97.70;102062.28;5044966;28;20089;-74
2023/08/22 03:01:04;;;;;;;4.95;2.95;;;;;;;17.33;97.68;102059.72;5057933;28;20083;-74
2023/08/22 03:03:31;;;;;;;4.05;2.65;;;;;;;17.32;97.93;102050.03;5049905;28;20036;-74
2023/08/22 03:06:00;;;;;;;3.42;3.13;;;;;;;17.31;98.23;102051.84;5061030;28;20593;-74
2023/08/22 03:08:26;;;;;;;7.38;3.30;;;;;;;17.32;98.31;102052.69;5070695;28;20032;-74
2023/08/22 03:10:51;;;;;;;3.08;2.78;;;;;;;17.30;98.41;102055.44;5063101;28;20220;-74
2023/08/22 03:13:17;;;;;;;3.05;2.75;;;;;;;17.30;98.31;102054.56;5081015;28;20232;-74
2023/08/22 03:15:42;;;;;;;3.30;2.78;;;;;;;17.29;98.28;102047.56;5081438;28;20077;-74
2023/08/22 03:18:08;;;;;;;4.25;3.28;;;;;;;17.29;98.43;102053.69;5080761;28;20036;-74
2023/08/22 03:20:33;;;;;;;5.95;3.25;;;;;;;17.27;98.49;102045.84;5062128;28;20021;-74
2023/08/22 03:22:59;;;;;;;2.88;2.60;;;;;;;17.26;98.42;102040.59;5061106;28;20045;-74
2023/08/22 03:25:24;;;;;;;3.10;2.58;;;;;;;17.25;98.22;102041.56;5060646;28;20063;-74
2023/08/22 03:27:50;;;;;;;3.00;2.80;;;;;;;17.25;98.55;102050.34;5061050;28;20091;-74
2023/08/22 03:30:15;;;;;;;4.22;2.75;;;;;;;17.24;98.51;102045.13;5060882;28;20089;-74
2023/08/22 03:32:41;;;;;;;3.28;2.65;;;;;;;17.24;98.38;102047.78;5060112;28;20080;-74
2023/08/22 03:35:07;;;;;;;3.63;2.75;;;;;;;17.23;98.59;102044.28;5060723;28;20378;-74
2023/08/22 03:37:32;;;;;;;3.25;2.58;;;;;;;17.23;98.56;102035.50;5061052;28;20088;-74
2023/08/22 03:39:58;;;;;;;4.35;2.70;;;;;;;17.22;98.38;102033.75;5060816;28;20033;-74
2023/08/22 03:42:23;;;;;;;3.20;3.00;;;;;;;17.21;98.48;102026.78;5059491;28;20037;-74
2023/08/22 03:44:48;;;;;;;3.45;2.95;;;;;;;17.20;98.72;102019.75;5060700;28;20035;-74
2023/08/22 03:47:14;;;;;;;3.15;2.88;;;;;;;17.19;98.71;102025.97;5060641;28;20273;-74
2023/08/22 03:49:39;;;;;;;2.95;2.60;;;;;;;17.17;98.90;102026.06;5060261;28;20070;-74
2023/08/22 03:52:05;;;;;;;4.25;2.95;;;;;;;17.18;98.18;102018.97;5042469;28;20033;-74
2023/08/22 03:54:31;;;;;;;5.65;2.50;;;;;;;17.17;98.43;102017.25;5060058;28;20036;-74
2023/08/22 03:56:56;;;;;;;2.70;2.50;;;;;;;17.15;98.39;102014.66;5068894;28;20052;-74
2023/08/22 03:59:22;;;;;;;2.70;2.50;;;;;;;17.15;98.56;102021.75;5079951;28;20040;-74
2023/08/22 04:01:47;;;;;;;3.10;2.55;;;;;;;17.14;98.36;102017.41;5080351;28;20033;-74
2023/08/22 04:04:14;;;;;;;2.55;2.30;;;;;;;17.13;98.32;102019.19;5067897;28;20398;-74
2023/08/22 04:06:41;;;;;;;4.57;2.35;;;;;;;17.13;98.41;102019.19;5039922;28;20047;-74
2023/08/22 04:09:08;;;;;;;2.78;2.55;;;;;;;17.12;98.25;102003.38;5040048;28;20060;-73
2023/08/22 04:11:34;;;;;;;2.60;2.40;;;;;;;17.11;98.11;102013.13;5039772;28;20040;-73
2023/08/22 04:13:59;;;;;;;3.42;2.70;;;;;;;17.10;98.25;102010.53;5040269;28;20325;-73
2023/08/22 04:16:25;;;;;;;3.40;2.60;;;;;;;17.10;98.21;102014.06;5022023;28;20033;-73
2023/08/22 04:18:50;;;;;;;5.45;2.50;;;;;;;17.09;98.15;102020.28;5039379;28;20029;-73
2023/08/22 04:21:15;;;;;;;3.28;2.70;;;;;;;17.07;98.25;102025.66;5021629;28;20116;-73
2023/08/22 04:23:41;;;;;;;4.15;2.97;;;;;;;17.06;98.27;102034.53;5022685;28;20033;-73
2023/08/22 04:26:06;;;;;;;2.80;2.60;;;;;;;17.04;98.21;102028.44;5040890;28;20033;-73
2023/08/22 04:28:33;;;;;;;4.60;2.50;;;;;;;17.05;98.18;102040.75;5040294;28;20369;-73
2023/08/22 04:30:59;;;;;;;3.25;2.30;;;;;;;17.04;98.23;102033.72;5040668;28;20059;-73
2023/08/22 04:33:24;;;;;;;2.90;2.70;;;;;;;17.03;98.13;102029.38;5039635;28;20060;-73
2023/08/22 04:35:50;;;;;;;3.03;2.58;;;;;;;17.03;98.36;102031.19;5039764;28;20025;-73
2023/08/22 04:38:16;;;;;;;4.55;3.03;;;;;;;17.01;98.19;102036.53;5039903;28;20022;-73
2023/08/22 04:40:42;;;;;;;4.85;2.95;;;;;;;17.01;98.04;102033.91;5040737;28;20052;-73
2023/08/22 04:43:08;;;;;;;2.63;2.42;;;;;;;17.00;97.93;102032.16;5040206;28;20387;-73
2023/08/22 04:45:33;;;;;;;6.88;2.92;;;;;;;16.99;98.25;102034.88;5040384;28;20059;-73
2023/08/22 04:47:58;;;;;;;4.38;2.45;;;;;;;16.98;98.25;102026.09;5040356;28;20045;-73
2023/08/22 04:50:24;;;;;;;6.63;2.95;;;;;;;16.97;98.21;102026.16;5039793;28;20037;-73
2023/08/22 04:52:50;;;;;;;7.57;2.95;;;;;;;16.96;98.43;102027.97;5040193;28;20093;-73
2023/08/22 04:55:15;;;;;;;3.58;2.78;;;;;;;16.96;98.36;102016.53;5039821;28;20036;-73
2023/08/22 04:57:41;;;;;;;3.70;2.63;;;;;;;16.95;98.54;102017.44;5069536;28;20059;-73
2023/08/22 05:00:09;;;;;;;3.40;2.75;;;;;;;16.95;98.45;102015.66;5080509;28;20050;-73
2023/08/22 05:02:35;;;;;;;5.13;2.88;;;;;;;16.94;98.34;102011.31;5080216;28;20044;-73
2023/08/22 05:05:01;;;;;;;3.95;2.95;;;;;;;16.93;98.64;102012.22;5062877;28;20037;-73
2023/08/22 05:07:26;;;;;;;4.75;2.42;;;;;;;16.94;98.46;102021.06;5058404;28;20059;-73
2023/08/22 05:09:51;;;;;;;4.72;2.85;;;;;;;16.94;98.40;102013.09;5040873;28;20064;-73
2023/08/22 05:12:17;;;;;;;4.43;3.20;;;;;;;16.93;98.58;102014.88;5058309;28;20068;-73
2023/08/22 05:14:42;;;;;;;4.28;3.05;;;;;;;16.93;98.67;102011.38;5030986;28;20230;-73
2023/08/22 05:17:08;;;;;;;4.25;2.70;;;;;;;16.92;98.52;102005.25;5062217;28;20281;-73
2023/08/22 05:19:33;;;;;;;4.15;2.97;;;;;;;16.92;98.65;102010.53;5073327;28;20255;-73
2023/08/22 05:21:58;;;;;;;3.85;3.30;;;;;;;16.93;98.55;102012.22;5061904;28;20079;-73
2023/08/22 05:24:24;;;;;;;3.42;2.95;;;;;;;16.94;98.61;102015.75;5061880;28;20060;-73
2023/08/22 05:26:49;;;;;;;4.93;2.90;;;;;;;16.94;98.84;102023.69;5055801;28;20436;-73
2023/08/22 05:29:15;;;;;;;5.20;3.38;;;;;;;16.94;98.74;102027.19;5047522;28;20035;-73
2023/08/22 05:31:40;;;;;;;5.35;3.35;;;;;;;16.95;98.88;102030.69;5043244;28;20392;-73
2023/08/22 05:34:05;;;;;;;3.78;3.08;;;;;;;16.96;98.79;102033.25;5032194;28;20348;-73
2023/08/22 05:36:31;;;;;;;3.55;3.22;;;;;;;16.96;98.79;102033.25;5062551;28;20099;-73
2023/08/22 05:38:56;;;;;;;6.18;3.55;;;;;;;16.98;98.96;102035.84;5045653;28;20029;-73
2023/08/22 05:41:22;;;;;;;4.95;3.63;;;;;;;16.98;98.72;102036.69;5061965;28;20033;-73
2023/08/22 05:43:47;;;;;;;3.60;3.30;;;;;;;16.99;98.95;102041.06;5083774;28;20036;-73
2023/08/22 05:46:13;;;;;;;4.47;3.20;;;;;;;17.00;98.99;102042.75;5073265;28;20036;-73
2023/08/22 05:48:38;;;;;;;4.20;3.55;;;;;;;17.00;99.00;102041.91;5063089;28;20020;-73
2023/08/22 05:51:03;;;;;;;6.57;3.88;;;;;;;17.01;99.07;102041.84;5063077;28;20092;-73
2023/08/22 05:53:29;;;;;;;4.78;3.15;;;;;;;17.02;99.08;102040.88;5062546;28;20086;-73
2023/08/22 05:55:55;;;;;;;4.70;3.40;;;;;;;17.04;99.06;102048.75;5063388;28;20074;-73
2023/08/22 05:58:21;;;;;;;5.40;3.35;;;;;;;17.04;99.17;102044.31;5072220;28;20268;-73
2023/08/22 06:00:47;;;;;;;5.38;3.60;;;;;;;17.06;99.17;102052.19;5082851;28;20033;-73
2023/08/22 06:03:12;;;;;;;4.13;3.72;;;;;;;17.07;99.11;102053.91;5083014;28;20297;-73
2023/08/22 06:05:38;;;;;;;5.22;3.00;;;;;;;17.09;99.09;102052.03;5046779;28;20039;-73
2023/08/22 06:08:04;;;;;;;3.67;2.80;;;;;;;17.11;99.10;102049.31;5042589;28;20037;-73
2023/08/22 06:10:29;;;;;;;3.28;2.92;;;;;;;17.13;98.96;102052.75;5042784;28;20037;-73
2023/08/22 06:12:54;;;;;;;4.53;3.22;;;;;;;17.14;98.70;102049.19;5043120;28;20029;-73
2023/08/22 06:15:20;;;;;;;9.93;4.10;;;;;;;17.15;98.69;102054.38;5041963;28;20029;-73
2023/08/22 06:17:45;;;;;;;4.50;3.00;;;;;;;17.16;98.65;102050.81;5042739;28;20068;-73
2023/08/22 06:20:11;;;;;;;3.60;3.00;;;;;;;17.18;98.57;102056.03;5060164;28;20039;-73
2023/08/22 06:22:36;;;;;;;4.25;3.75;;;;;;;17.19;98.34;102053.31;5064373;28;20037;-73
2023/08/22 06:25:04;;;;;;;4.72;3.13;;;;;;;17.21;98.20;102050.59;5070939;28;20021;-73
2023/08/22 06:27:30;;;;;;;11.65;3.92;;;;;;;17.22;98.35;102049.66;5071083;28;20055;-73
2023/08/22 06:29:56;;;;;;;7.47;3.67;;;;;;;17.24;98.70;102053.06;5072431;28;20032;-73
2023/08/22 06:32:22;;;;;;;5.13;3.50;;;;;;;17.24;98.31;102045.97;5071003;28;20041;-73
2023/08/22 06:34:48;;;;;;;5.72;3.47;;;;;;;17.26;98.13;102044.13;5066542;28;20036;-73
2023/08/22 06:37:13;;;;;;;7.63;5.53;;;;;;;17.28;98.38;102046.69;5072100;28;20318;-73
2023/08/22 06:39:39;;;;;;;9.23;4.68;;;;;;;17.30;98.41;102046.59;5071038;28;20055;-72
2023/08/22 06:42:05;;;;;;;4.15;3.53;;;;;;;17.32;98.52;102050.03;5052965;28;20040;-73
2023/08/22 06:44:30;;;;;;;7.82;5.05;;;;;;;17.33;98.36;102049.97;5068391;28;20549;-73
2023/08/22 06:46:55;;;;;;;10.73;4.93;;;;;;;17.36;98.47;102044.53;5068257;28;20025;-73
2023/08/22 06:49:21;;;;;;;5.60;4.78;;;;;;;17.38;98.72;102042.66;5052760;28;20411;-73
2023/08/22 06:51:46;;;;;;;6.97;5.15;;;;;;;17.40;98.77;102043.44;5076502;28;20105;-73
2023/08/22 06:54:12;;;;;;;6.22;4.15;;;;;;;17.42;98.61;102049.50;5051416;28;20032;-73
2023/08/22 06:56:37;;;;;;;15.65;6.65;;;;;;;17.43;98.77;102051.22;5055735;28;20363;-73
2023/08/22 06:59:02;;;;;;;7.07;4.80;;;;;;;17.46;98.87;102061.69;5057815;28;20283;-73
2023/08/22 07:01:28;;;;;;;8.32;4.85;;;;;;;17.48;98.71;102068.66;5054288;28;20032;-73
2023/08/22 07:03:53;;;;;;;12.48;5.38;;;;;;;17.49;98.51;102065.94;5060449;28;20075;-73
2023/08/22 07:06:19;;;;;;;13.35;6.22;;;;;;;17.51;98.48;102065.88;5050642;28;20033;-73
2023/08/22 07:08:44;;;;;;;15.68;6.88;;;;;;;17.53;99.01;102069.28;5057600;28;20037;-73
2023/08/22 07:11:09;;;;;;;13.40;6.75;;;;;;;17.54;99.21;102066.56;5045270;28;20214;-73
2023/08/22 07:13:35;;;;;;;10.88;6.25;;;;;;;17.57;99.01;102082.31;5053045;28;20511;-72
2023/08/22 07:16:01;;;;;;;9.43;5.78;;;;;;;17.58;99.07;102084.03;5045627;28;20043;-73
2023/08/22 07:18:27;;;;;;;10.23;6.38;;;;;;;17.60;98.97;102086.59;5047903;28;20084;-73
2023/08/22 07:20:53;;;;;;;10.18;5.75;;;;;;;17.62;99.14;102093.53;5043061;28;20120;-73
2023/08/22 07:23:22;;;;;;;8.45;5.65;;;;;;;17.63;98.86;102089.09;5041647;28;20060;-73
2023/08/22 07:25:51;;;;;;;9.75;5.65;;;;;;;17.65;99.04;102089.88;5049762;28;20037;-73
2023/08/22 07:28:17;;;;;;;9.05;5.20;;;;;;;17.67;99.02;102092.44;5040626;28;20061;-73
2023/08/22 07:30:47;;;;;;;13.05;6.55;;;;;;;17.69;99.09;102094.06;5062278;28;20429;-73
2023/08/22 07:33:13;;;;;;;11.60;5.28;;;;;;;17.71;99.33;102102.81;5059137;28;20588;-73
2023/08/22 07:35:39;;;;;;;8.00;4.68;;;;;;;17.73;99.21;102108.88;5049994;28;20037;-73
2023/08/22 07:38:04;;;;;;;7.68;4.88;;;;;;;17.74;99.16;102105.31;5059891;28;20275;-73
2023/08/22 07:40:31;;;;;;;8.23;4.57;;;;;;;17.77;99.47;102112.22;5058880;28;20105;-73
2023/08/22 07:42:58;;;;;;;9.35;4.72;;;;;;;17.79;99.37;102113.88;5060032;28;20044;-73
2023/08/22 07:45:24;;;;;;;7.68;5.28;;;;;;;17.80;99.24;102117.38;5063887;28;20036;-73
2023/08/22 07:47:49;;;;;;;6.82;5.18;;;;;;;17.82;99.21;102126.09;5068552;28;20032;-73
2023/08/22 07:50:15;;;;;;;10.57;5.45;;;;;;;17.83;98.99;102131.31;5068331;28;20099;-73
2023/08/22 07:52:40;;;;;;;10.25;5.28;;;;;;;17.86;99.21;102126.84;5065747;28;20037;-72
2023/08/22 07:55:06;;;;;;;7.75;5.00;;;;;;;17.88;99.05;102119.66;5068131;28;20317;-73
2023/08/22 07:57:31;;;;;;;8.23;4.28;;;;;;;17.91;98.99;102115.06;5062191;28;20040;-73
2023/08/22 07:59:56;;;;;;;8.77;5.05;;;;;;;17.93;99.00;102109.69;5063806;28;20343;-73
2023/08/22 08:02:22;;;;;;;7.18;4.82;;;;;;;17.95;99.23;102107.81;5047078;28;20037;-73
2023/08/22 08:04:47;;;;;;;8.38;4.78;;;;;;;17.97;99.19;102111.22;5060680;28;20024;-73
2023/08/22 08:07:13;;;;;;;10.70;5.43;;;;;;;18.00;99.23;102097.84;5042984;28;20339;-73
2023/08/22 08:09:38;;;;;;;22.80;6.45;;;;;;;18.02;99.06;102111.84;5058142;28;20320;-73
2023/08/22 08:12:04;;;;;;;11.18;5.65;;;;;;;18.05;99.20;102113.50;5058308;28;20169;-73
2023/08/22 08:14:29;;;;;;;9.48;5.38;;;;;;;18.08;99.42;102113.31;5061983;28;20055;-73
2023/08/22 08:16:55;;;;;;;11.75;6.53;;;;;;;18.09;99.06;102105.31;5064015;28;20041;-73
2023/08/22 08:19:20;;;;;;;8.68;4.85;;;;;;;18.12;99.14;102102.50;5066860;28;20055;-73
2023/08/22 08:21:46;;;;;;;11.80;4.57;;;;;;;18.13;98.84;102106.00;5066958;28;20032;-73
2023/08/22 08:24:11;;;;;;;7.28;4.55;;;;;;;18.16;99.28;102112.00;5062938;28;20036;-73
2023/08/22 08:26:37;;;;;;;6.80;4.53;;;;;;;18.19;99.40;102103.00;5063755;28;20052;-73
2023/08/22 08:29:03;;;;;;;8.05;4.72;;;;;;;18.21;99.39;102103.81;5061074;28;20041;-73
2023/08/22 08:31:28;;;;;;;4.53;4.13;;;;;;;18.23;99.23;102097.47;5056737;28;20044;-73
2023/08/22 08:33:54;;;;;;;8.88;4.22;;;;;;;18.26;99.04;102098.25;5056201;28;20047;-73
2023/08/22 08:36:20;;;;;;;10.55;4.10;;;;;;;18.27;99.10;102090.22;5057115;28;20044;-73
2023/08/22 08:38:45;;;;;;;6.47;3.13;;;;;;;18.31;99.13;102096.22;5059259;28;20338;-73
2023/08/22 08:41:11;;;;;;;5.75;3.72;;;;;;;18.32;98.98;102093.50;5058994;28;20032;-73
2023/08/22 08:43:38;;;;;;;11.25;3.75;;;;;;;18.35;98.91;102092.44;5058162;28;20029;-73
2023/08/22 08:46:03;;;;;;;9.68;3.53;;;;;;;18.37;98.98;102095.88;5057890;28;20020;-73
2023/08/22 08:48:30;;;;;;;5.53;3.65;;;;;;;18.40;98.52;102098.38;5052352;28;20221;-73
2023/08/22 08:50:59;;;;;;;8.38;3.58;;;;;;;18.42;98.31;102099.16;5057195;28;20029;-73
2023/08/22 08:53:26;;;;;;;4.78;2.95;;;;;;;18.42;98.29;102102.66;5055385;28;20024;-73
2023/08/22 08:55:51;;;;;;;4.95;2.47;;;;;;;18.45;98.00;102103.44;5062265;28;20025;-73
2023/08/22 08:58:17;;;;;;;5.47;2.70;;;;;;;18.47;97.95;102110.38;5057170;28;20040;-73
2023/08/22 09:00:44;;;;;;;6.00;2.88;;;;;;;18.49;98.03;102116.44;5057538;28;20363;-73
2023/08/22 09:03:10;;;;;;;3.90;2.45;;;;;;;18.51;98.23;102119.88;5071881;28;20040;-73
2023/08/22 09:05:37;;;;;;;8.25;2.60;;;;;;;18.54;97.94;102118.88;5061671;28;20093;-73
2023/08/22 09:08:19;;;;;;;5.53;2.55;;;;;;;18.56;97.85;102114.31;5055493;28;20033;-73
2023/08/22 09:10:50;;;;;;;6.22;2.83;;;;;;;18.58;97.87;102117.75;5059619;28;20029;-73
2023/08/22 09:13:16;;;;;;;6.30;2.58;;;;;;;18.59;97.92;102115.03;5059849;28;20347;-73
2023/08/22 09:15:42;;;;;;;8.95;2.50;;;;;;;18.61;97.57;102106.97;5056560;28;20059;-73
2023/08/22 09:18:08;;;;;;;8.43;2.50;;;;;;;18.64;97.66;102108.59;5068133;28;20047;-73
2023/08/22 09:20:34;;;;;;;4.75;2.28;;;;;;;18.65;97.48;102105.88;5061705;28;20374;-73
2023/08/22 09:22:59;;;;;;;4.43;2.30;;;;;;;18.67;97.28;102108.44;5066960;28;20024;-72
2023/08/22 09:25:39;;;;;;;3.38;1.95;;;;;;;18.69;97.31;102111.84;5064245;28;20025;-72
2023/08/22 09:28:10;;;;;;;5.32;2.10;;;;;;;18.71;97.12;102112.63;5066419;28;20048;-73
2023/08/22 09:30:35;;;;;;;5.22;2.33;;;;;;;18.72;96.96;102119.63;5058621;28;20033;-73
2023/08/22 09:33:01;;;;;;;2.58;2.15;;;;;;;18.74;96.91;102129.25;5059688;28;20079;-73
2023/08/22 09:35:32;;;;;;;4.57;2.20;;;;;;;18.75;96.87;102130.94;5060970;28;20350;-73
2023/08/22 09:38:06;;;;;;;6.45;2.05;;;;;;;18.77;96.65;102125.53;5062296;28;20048;-73
2023/08/22 09:40:31;;;;;;;7.30;2.20;;;;;;;18.78;96.53;102125.47;5059153;28;20029;-73
2023/08/22 09:42:57;;;;;;;7.63;2.28;;;;;;;18.82;96.75;102128.00;5061844;28;20138;-73
2023/08/22 09:45:22;;;;;;;4.43;1.70;;;;;;;18.83;96.79;102133.22;5064074;28;20108;-72
2023/08/22 09:47:50;;;;;;;4.47;1.83;;;;;;;18.85;96.50;102127.84;5067384;28;20043;-73
2023/08/22 09:50:17;;;;;;;4.73;1.77;;;;;;;18.87;96.67;102126.78;5062391;28;20058;-73
2023/08/22 09:52:42;;;;;;;3.47;1.50;;;;;;;18.88;96.32;102125.88;5058377;28;20293;-73
2023/08/22 09:55:10;;;;;;;3.00;1.83;;;;;;;18.91;96.09;102127.47;5064482;28;20039;-73
2023/08/22 09:57:37;;;;;;;8.68;2.03;;;;;;;18.91;96.15;102119.53;5066055;28;20021;-73
2023/08/22 10:00:05;;;;;;;9.05;2.25;;;;;;;18.92;96.16;102135.38;5060381;28;20086;-73
2023/08/22 10:02:32;;;;;;;2.90;1.50;;;;;;;18.95;95.75;102129.03;5060786;28;20028;-73
2023/08/22 10:05:00;;;;;;;5.05;1.70;;;;;;;18.95;95.97;102119.25;5059993;28;20047;-73
2023/08/22 10:07:26;;;;;;;3.65;1.88;;;;;;;18.97;95.81;102117.41;5061101;28;20100;-73
2023/08/22 10:09:52;;;;;;;3.28;1.42;;;;;;;18.98;95.84;102127.06;5061566;28;20045;-73
2023/08/22 10:12:19;;;;;;;6.00;1.65;;;;;;;19.01;95.78;102117.19;5060375;28;20037;-73
2023/08/22 10:14:48;;;;;;;3.15;1.63;;;;;;;19.02;95.87;102124.22;5060302;28;20315;-73
2023/08/22 10:17:14;;;;;;;2.58;1.80;;;;;;;19.03;95.34;102131.25;5059750;28;20358;-73
2023/08/22 10:19:41;;;;;;;3.78;1.48;;;;;;;19.04;95.29;102119.69;5059420;28;20099;-73
2023/08/22 10:22:08;;;;;;;4.90;1.58;;;;;;;19.06;95.61;102126.63;5059509;28;20347;-73
2023/08/22 10:24:35;;;;;;;4.73;2.13;;;;;;;19.07;95.26;102132.81;5056839;28;20036;-73
2023/08/22 10:27:05;;;;;;;3.88;2.17;;;;;;;19.08;95.37;102135.38;5057495;28;20112;-73
2023/08/22 10:29:36;;;;;;;3.65;1.85;;;;;;;19.10;95.30;102137.91;5057302;28;20025;-73
2023/08/22 10:32:01;;;;;;;4.32;1.63;;;;;;;19.11;94.98;102137.00;5058983;28;20040;-72
2023/08/22 10:34:39;;;;;;;6.53;2.00;;;;;;;19.13;95.07;102129.78;5052973;28;20041;-73
2023/08/22 10:37:25;;;;;;;5.07;1.65;;;;;;;19.13;95.17;102135.94;5054625;28;20291;-73
2023/08/22 10:39:52;;;;;;;7.07;1.80;;;;;;;19.15;94.81;102142.03;5054118;28;20119;-73
2023/08/22 10:42:19;;;;;;;5.35;2.22;;;;;;;19.16;95.15;102134.94;5054748;28;20040;-73
2023/08/22 10:44:49;;;;;;;4.25;1.88;;;;;;;19.18;94.98;102138.34;5050813;28;20781;-73
2023/08/22 10:47:16;;;;;;;7.20;2.17;;;;;;;19.19;95.47;102134.75;5055754;28;20047;-73
2023/08/22 10:49:42;;;;;;;3.42;1.95;;;;;;;19.21;95.04;102135.53;5067984;28;20025;-73
2023/08/22 10:52:11;;;;;;;3.88;1.80;;;;;;;19.22;95.24;102129.25;5063909;28;20075;-73
2023/08/22 10:54:59;;;;;;;4.22;2.20;;;;;;;19.22;95.03;102131.91;5065018;28;20035;-73
2023/08/22 10:57:29;;;;;;;3.35;1.83;;;;;;;19.24;95.16;102131.84;5052110;28;20293;-72
2023/08/22 11:00:18;;;;;;;4.70;2.00;;;;;;;19.26;94.81;102143.22;5052507;28;20190;-73
2023/08/22 11:02:44;;;;;;;3.38;1.92;;;;;;;19.25;94.99;102145.03;5062153;28;20098;-73
2023/08/22 11:05:12;;;;;;;2.53;1.75;;;;;;;19.28;94.96;102146.66;5061091;28;20032;-73
2023/08/22 11:07:44;;;;;;;3.92;1.95;;;;;;;19.28;94.63;102141.34;5061530;28;20336;-73
2023/08/22 11:10:28;;;;;;;4.50;2.00;;;;;;;19.29;94.98;102140.41;5063970;28;20055;-73
2023/08/22 11:12:54;;;;;;;6.03;2.05;;;;;;;19.31;94.73;102135.88;5066105;28;20078;-73
2023/08/22 11:15:20;;;;;;;4.20;1.60;;;;;;;19.32;94.71;102137.59;5066851;28;20028;-73
2023/08/22 11:17:47;;;;;;;2.88;1.80;;;;;;;19.32;94.53;102141.09;5067765;28;20067;-73
2023/08/22 11:20:14;;;;;;;6.53;2.13;;;;;;;19.34;94.39;102136.53;5063859;28;20235;-73
2023/08/22 11:22:40;;;;;;;3.42;1.40;;;;;;;19.35;94.61;102140.03;5065617;28;20028;-73